createdAt,value
2019-04-18T00:00:58.441Z,11.93
2019-04-18T00:03:04.227Z,12.27
2019-04-18T00:05:23.952Z,12.80
2019-04-18T00:07:26.565Z,12.03
2019-04-18T00:09:28.052Z,11.60
2019-04-18T00:11:29.616Z,12.03
2019-04-18T00:13:30.825Z,12.57
2019-04-18T00:15:38.941Z,12.90
2019-04-18T00:17:35.192Z,13.10
2019-04-18T00:19:36.740Z,13.33
2019-04-18T00:21:37.958Z,12.33
2019-04-18T00:23:39.195Z,12.67
2019-04-18T00:25:40.428Z,12.57
2019-04-18T00:27:41.810Z,13.03
2019-04-18T00:29:44.768Z,12.93
2019-04-18T00:31:46.001Z,12.43
2019-04-18T00:33:50.460Z,12.50
2019-04-18T00:35:50.437Z,12.77
2019-04-18T00:37:53.202Z,11.53
2019-04-18T00:39:55.881Z,11.73
2019-04-18T00:41:58.201Z,11.37
2019-04-18T00:44:01.155Z,12.40
2019-04-18T00:46:02.560Z,11.20
2019-04-18T00:48:03.769Z,9.67
2019-04-18T00:50:05.340Z,9.90
2019-04-18T00:52:06.929Z,9.23
2019-04-18T00:54:08.389Z,9.07
2019-04-18T00:56:09.713Z,8.60
2019-04-18T00:58:10.928Z,9.53
2019-04-18T01:00:14.109Z,8.73
2019-04-18T01:02:19.008Z,8.87
2019-04-18T01:04:26.789Z,8.40
2019-04-18T01:06:22.251Z,8.67
2019-04-18T01:08:23.453Z,8.67
2019-04-18T01:10:25.001Z,7.93
2019-04-18T01:12:28.882Z,8.27
2019-04-18T01:14:29.384Z,8.17
2019-04-18T01:16:30.949Z,8.20
2019-04-18T01:18:32.174Z,8.23
2019-04-18T01:20:33.422Z,8.20
2019-04-18T01:22:34.905Z,8.40
2019-04-18T01:24:36.384Z,8.30
2019-04-18T01:26:37.946Z,8.17
2019-04-18T01:28:39.156Z,8.10
2019-04-18T01:30:40.392Z,8.30
2019-04-18T01:32:41.981Z,8.03
2019-04-18T01:34:48.753Z,8.47
2019-04-18T01:36:46.656Z,8.83
2019-04-18T01:38:47.872Z,8.60
2019-04-18T01:40:52.569Z,8.50
2019-04-18T01:43:05.947Z,9.43
2019-04-18T01:45:15.748Z,9.10
2019-04-18T01:47:18.067Z,8.77
2019-04-18T01:49:19.277Z,9.00
2019-04-18T01:51:21.859Z,8.67
2019-04-18T01:53:24.997Z,8.77
2019-04-18T01:55:26.414Z,9.40
2019-04-18T01:57:28.565Z,9.80
2019-04-18T01:59:29.864Z,9.23
2019-04-18T02:01:31.080Z,9.23
2019-04-18T02:03:33.978Z,9.23
2019-04-18T02:05:35.432Z,10.03
2019-04-18T02:07:36.641Z,9.50
2019-04-18T02:09:37.869Z,9.27
2019-04-18T02:11:39.108Z,8.80
2019-04-18T02:13:40.334Z,8.60
2019-04-18T02:15:41.562Z,8.50
2019-04-18T02:17:43.089Z,7.50
2019-04-18T02:19:44.319Z,7.93
2019-04-18T02:21:45.904Z,8.30
2019-04-18T02:23:47.267Z,8.67
2019-04-18T02:25:48.744Z,8.17
2019-04-18T02:27:50.353Z,8.87
2019-04-18T02:29:51.881Z,7.90
2019-04-18T02:31:53.116Z,7.73
2019-04-18T02:33:54.976Z,7.60
2019-04-18T02:35:58.624Z,8.00
2019-04-18T02:38:00.345Z,7.73
2019-04-18T02:40:02.892Z,7.97
2019-04-18T02:42:05.012Z,7.77
2019-04-18T02:44:06.376Z,8.13
2019-04-18T02:46:10.404Z,8.47
2019-04-18T02:48:11.565Z,8.47
2019-04-18T02:50:13.221Z,9.03
2019-04-18T02:52:14.701Z,8.37
2019-04-18T02:54:15.957Z,8.60
2019-04-18T02:56:27.054Z,8.40
2019-04-18T02:58:37.201Z,8.70
2019-04-18T03:00:58.680Z,8.57
2019-04-18T03:03:10.631Z,8.77
2019-04-18T03:05:12.406Z,8.80
2019-04-18T03:07:13.680Z,9.40
2019-04-18T03:09:14.920Z,8.77
2019-04-18T03:11:18.837Z,9.33
2019-04-18T03:13:19.940Z,9.10
2019-04-18T03:15:21.157Z,9.27
2019-04-18T03:17:22.400Z,9.17
2019-04-18T03:19:23.636Z,9.03
2019-04-18T03:21:26.651Z,9.23
2019-04-18T03:23:28.135Z,9.37
2019-04-18T03:25:29.376Z,9.30
2019-04-18T03:27:31.108Z,9.33
2019-04-18T03:29:34.089Z,9.40
2019-04-18T03:31:35.314Z,9.20
2019-04-18T03:33:36.534Z,9.40
2019-04-18T03:35:48.604Z,9.23
2019-04-18T03:37:40.880Z,10.07
2019-04-18T03:39:42.437Z,9.40
2019-04-18T03:41:43.685Z,9.90
2019-04-18T03:43:45.278Z,10.10
2019-04-18T03:45:55.645Z,10.30
2019-04-18T03:48:00.234Z,10.80
2019-04-18T03:50:01.262Z,10.43
2019-04-18T03:52:02.781Z,10.07
2019-04-18T03:54:07.234Z,10.60
2019-04-18T03:56:07.662Z,10.20
2019-04-18T03:58:11.110Z,11.00
2019-04-18T04:00:12.219Z,11.17
2019-04-18T04:02:13.521Z,10.47
2019-04-18T04:04:21.173Z,10.13
2019-04-18T04:06:20.823Z,10.80
2019-04-18T04:08:21.013Z,10.10
2019-04-18T04:10:22.568Z,11.77
2019-04-18T04:12:27.632Z,11.23
2019-04-18T04:14:27.484Z,11.63
2019-04-18T04:16:31.010Z,12.40
2019-04-18T04:18:51.173Z,11.70
2019-04-18T04:20:55.167Z,11.17
2019-04-18T04:22:55.536Z,11.87
2019-04-18T04:24:56.748Z,11.17
2019-04-18T04:26:57.998Z,12.40
2019-04-18T04:29:01.423Z,11.20
2019-04-18T04:31:02.736Z,11.70
2019-04-18T04:33:04.123Z,12.70
2019-04-18T04:35:05.579Z,11.67
2019-04-18T04:37:08.418Z,11.67
2019-04-18T04:39:10.103Z,11.87
2019-04-18T04:41:13.959Z,11.73
2019-04-18T04:43:19.351Z,11.87
2019-04-18T04:45:17.868Z,12.90
2019-04-18T04:47:35.284Z,12.47
2019-04-18T04:49:36.860Z,12.53
2019-04-18T04:51:46.437Z,12.60
2019-04-18T04:53:51.217Z,12.53
2019-04-18T04:55:53.157Z,12.30
2019-04-18T04:58:02.965Z,12.37
2019-04-18T05:00:15.616Z,12.93
2019-04-18T05:02:17.309Z,13.07
2019-04-18T05:04:21.234Z,13.47
2019-04-18T05:06:35.538Z,13.07
2019-04-18T05:08:26.118Z,12.83
2019-04-18T05:10:28.897Z,13.17
2019-04-18T05:12:30.464Z,13.60
2019-04-18T05:14:32.028Z,13.63
2019-04-18T05:16:52.359Z,13.67
2019-04-18T05:18:52.149Z,12.83
2019-04-18T05:20:53.380Z,13.47
2019-04-18T05:22:55.054Z,12.17
2019-04-18T05:24:56.560Z,12.10
2019-04-18T05:26:58.101Z,12.37
2019-04-18T05:28:59.667Z,12.87
2019-04-18T05:31:01.227Z,12.60
2019-04-18T05:33:03.728Z,12.50
2019-04-18T05:35:05.881Z,12.90
2019-04-18T05:37:12.560Z,12.60
2019-04-18T05:39:10.548Z,13.53
2019-04-18T05:41:13.666Z,13.27
2019-04-18T05:43:14.910Z,13.27
2019-04-18T05:45:16.433Z,13.03
2019-04-18T05:47:46.591Z,13.20
2019-04-18T05:49:54.961Z,13.20
2019-04-18T05:52:03.162Z,13.87
2019-04-18T05:54:14.473Z,13.17
2019-04-18T05:56:15.716Z,13.37
2019-04-18T05:58:20.532Z,13.37
2019-04-18T06:00:32.034Z,13.33
2019-04-18T06:02:54.215Z,12.90
2019-04-18T06:05:18.221Z,12.40
2019-04-18T06:07:35.016Z,13.20
2019-04-18T06:09:42.444Z,12.90
2019-04-18T06:11:44.572Z,13.97
2019-04-18T06:13:49.495Z,12.30
2019-04-18T06:16:07.631Z,12.77
2019-04-18T06:18:21.368Z,12.77
2019-04-18T06:20:30.137Z,12.43
2019-04-18T06:22:29.998Z,13.17
2019-04-18T06:24:38.621Z,13.13
2019-04-18T06:27:06.285Z,12.97
2019-04-18T06:29:31.313Z,12.90
2019-04-18T06:31:47.742Z,12.43
2019-04-18T06:33:49.459Z,13.20
2019-04-18T06:35:50.881Z,12.33
2019-04-18T06:37:52.896Z,12.20
2019-04-18T06:39:57.558Z,12.67
2019-04-18T06:42:04.637Z,12.00
2019-04-18T06:44:07.634Z,12.80
2019-04-18T06:46:11.081Z,12.60
2019-04-18T06:48:13.113Z,12.03
2019-04-18T06:50:17.465Z,12.87
2019-04-18T06:52:17.776Z,12.43
2019-04-18T06:54:19.088Z,12.63
2019-04-18T06:56:20.332Z,13.67
2019-04-18T06:58:34.701Z,11.93
2019-04-18T07:00:28.752Z,11.83
2019-04-18T07:02:28.368Z,12.70
2019-04-18T07:04:30.038Z,12.43
2019-04-18T07:06:33.443Z,11.90
2019-04-18T07:08:59.633Z,12.33
2019-04-18T07:11:04.740Z,11.70
2019-04-18T07:13:09.203Z,12.13
2019-04-18T07:15:10.940Z,11.90
2019-04-18T07:17:14.493Z,12.53
2019-04-18T07:19:33.218Z,11.00
2019-04-18T07:21:40.028Z,12.03
2019-04-18T07:23:43.305Z,12.30
2019-04-18T07:25:44.541Z,11.07
2019-04-18T07:27:47.233Z,11.20
2019-04-18T07:29:49.152Z,10.93
2019-04-18T07:31:50.665Z,11.20
2019-04-18T07:33:51.896Z,11.20
2019-04-18T07:35:53.795Z,10.40
2019-04-18T07:37:55.023Z,11.00
2019-04-18T07:39:56.233Z,11.30
2019-04-18T07:41:57.745Z,11.80
2019-04-18T07:43:58.960Z,11.67
2019-04-18T07:46:00.365Z,11.10
2019-04-18T07:48:01.576Z,11.40
2019-04-18T07:50:03.133Z,11.07
2019-04-18T07:52:04.372Z,11.13
2019-04-18T07:54:05.682Z,10.63
2019-04-18T07:56:08.634Z,10.27
2019-04-18T07:58:10.339Z,11.03
2019-04-18T08:00:13.887Z,11.43
2019-04-18T08:02:15.220Z,10.40
2019-04-18T08:04:17.002Z,10.07
2019-04-18T08:06:23.070Z,10.37
2019-04-18T08:08:21.622Z,10.07
2019-04-18T08:10:26.142Z,9.67
2019-04-18T08:12:28.783Z,9.63
2019-04-18T08:14:29.797Z,9.87
2019-04-18T08:16:31.039Z,10.13
2019-04-18T08:18:32.261Z,9.93
2019-04-18T08:20:33.885Z,10.17
2019-04-18T08:22:35.459Z,9.27
2019-04-18T08:24:36.771Z,9.70
2019-04-18T08:26:38.036Z,9.63
2019-04-18T08:28:39.245Z,9.70
2019-04-18T08:30:40.489Z,9.80
2019-04-18T08:32:41.738Z,9.57
2019-04-18T08:34:43.245Z,9.23
2019-04-18T08:36:46.041Z,9.10
2019-04-18T08:39:08.400Z,9.30
2019-04-18T08:41:14.925Z,8.67
2019-04-18T08:43:38.491Z,8.57
2019-04-18T08:45:42.483Z,8.20
2019-04-18T08:47:45.972Z,7.60
2019-04-18T08:49:50.506Z,8.13
2019-04-18T08:52:09.924Z,7.80
2019-04-18T08:54:25.436Z,7.13
2019-04-18T08:56:31.436Z,7.40
2019-04-18T08:58:32.474Z,8.00
2019-04-18T09:00:33.706Z,9.03
2019-04-18T09:02:35.268Z,9.13
2019-04-18T09:04:36.824Z,8.83
2019-04-18T09:06:38.651Z,9.00
2019-04-18T09:08:40.420Z,8.10
2019-04-18T09:10:44.096Z,8.33
2019-04-18T09:12:46.124Z,8.57
2019-04-18T09:14:48.708Z,8.10
2019-04-18T09:16:50.552Z,7.87
2019-04-18T09:18:53.460Z,8.10
2019-04-18T09:20:54.908Z,8.10
2019-04-18T09:22:56.710Z,8.37
2019-04-18T09:24:58.902Z,8.37
2019-04-18T09:27:00.876Z,8.00
2019-04-18T09:29:02.233Z,7.70
2019-04-18T09:31:03.823Z,7.58
2019-04-18T09:33:05.328Z,8.20
2019-04-18T09:35:06.783Z,7.13
2019-04-18T09:37:10.297Z,8.13
2019-04-18T09:39:12.701Z,7.77
2019-04-18T09:41:14.525Z,7.40
2019-04-18T09:43:23.532Z,7.58
2019-04-18T09:45:29.259Z,7.37
2019-04-18T09:47:22.323Z,7.30
2019-04-18T09:49:24.016Z,7.90
2019-04-18T09:51:27.069Z,7.75
2019-04-18T09:53:30.920Z,7.62
2019-04-18T09:55:32.053Z,7.72
2019-04-18T09:57:33.648Z,7.70
2019-04-18T09:59:35.150Z,8.03
2019-04-18T10:01:36.368Z,7.90
2019-04-18T10:03:37.911Z,7.60
2019-04-18T10:05:39.156Z,7.87
2019-04-18T10:07:41.244Z,7.92
2019-04-18T10:09:42.486Z,7.97
2019-04-18T10:11:43.708Z,7.33
2019-04-18T10:13:44.940Z,8.47
2019-04-18T10:15:57.727Z,7.95
2019-04-18T10:17:49.995Z,7.45
2019-04-18T10:19:53.155Z,8.10
2019-04-18T10:22:05.534Z,8.35
2019-04-18T10:24:06.750Z,8.25
2019-04-18T10:26:26.101Z,8.28
2019-04-18T10:28:27.320Z,7.65
2019-04-18T10:30:35.424Z,7.87
2019-04-18T10:32:36.652Z,7.42
2019-04-18T10:34:37.876Z,7.50
2019-04-18T10:36:39.218Z,8.03
2019-04-18T10:38:40.440Z,9.25
2019-04-18T10:40:41.976Z,8.08
2019-04-18T10:42:43.206Z,8.35
2019-04-18T10:44:44.734Z,8.88
2019-04-18T10:46:46.303Z,8.70
2019-04-18T10:48:47.515Z,8.43
2019-04-18T10:50:48.996Z,8.23
2019-04-18T10:52:50.876Z,8.25
2019-04-18T10:54:52.116Z,7.90
2019-04-18T10:56:53.668Z,9.28
2019-04-18T10:58:54.897Z,9.13
2019-04-18T11:00:56.112Z,8.28
2019-04-18T11:02:57.364Z,8.00
2019-04-18T11:04:58.605Z,8.40
2019-04-18T11:06:59.853Z,8.98
2019-04-18T11:09:01.093Z,7.72
2019-04-18T11:11:02.583Z,8.18
2019-04-18T11:13:04.580Z,8.28
2019-04-18T11:15:06.259Z,8.05
2019-04-18T11:17:07.964Z,8.00
2019-04-18T11:19:09.628Z,8.28
2019-04-18T11:21:10.900Z,8.03
2019-04-18T11:23:12.145Z,7.50
2019-04-18T11:25:13.365Z,8.30
2019-04-18T11:27:14.590Z,7.50
2019-04-18T11:29:16.180Z,8.25
2019-04-18T11:31:18.066Z,7.83
2019-04-18T11:33:19.440Z,7.65
2019-04-18T11:35:20.669Z,7.65
2019-04-18T11:37:22.188Z,7.33
2019-04-18T11:39:25.161Z,7.25
2019-04-18T11:41:26.580Z,7.60
2019-04-18T11:43:28.144Z,7.80
2019-04-18T11:45:29.401Z,8.13
2019-04-18T11:47:30.717Z,8.58
2019-04-18T11:49:32.929Z,8.10
2019-04-18T11:51:34.308Z,8.03
2019-04-18T11:53:35.528Z,8.20
2019-04-18T11:55:36.773Z,8.30
2019-04-18T11:57:38.612Z,8.40
2019-04-18T11:59:46.080Z,7.92
2019-04-18T12:01:48.156Z,7.80
2019-04-18T12:04:07.278Z,8.05
2019-04-18T12:06:08.525Z,8.00
2019-04-18T12:08:09.950Z,9.33
2019-04-18T12:10:12.847Z,8.18
2019-04-18T12:12:14.113Z,7.83
2019-04-18T12:14:15.348Z,7.78
2019-04-18T12:16:16.580Z,7.80
2019-04-18T12:18:17.805Z,7.90
2019-04-18T12:20:19.008Z,7.92
2019-04-18T12:22:20.581Z,7.60
2019-04-18T12:24:21.801Z,7.58
2019-04-18T12:26:23.020Z,7.95
2019-04-18T12:28:24.275Z,7.60
2019-04-18T12:30:25.812Z,7.67
2019-04-18T12:32:27.055Z,7.83
2019-04-18T12:34:28.265Z,7.80
2019-04-18T12:36:29.485Z,7.50
2019-04-18T12:38:30.728Z,6.42
2019-04-18T12:40:31.940Z,7.70
2019-04-18T12:42:34.064Z,7.35
2019-04-18T12:44:35.290Z,6.45
2019-04-18T12:46:36.503Z,7.15
2019-04-18T12:48:37.939Z,7.08
2019-04-18T12:50:39.265Z,7.43
2019-04-18T12:52:40.492Z,7.33
2019-04-18T12:54:41.751Z,7.22
2019-04-18T12:56:42.964Z,7.35
2019-04-18T12:58:44.176Z,7.40
2019-04-18T13:00:45.413Z,6.60
2019-04-18T13:02:46.740Z,6.67
2019-04-18T13:04:48.328Z,6.75
2019-04-18T13:06:50.014Z,6.53
2019-04-18T13:08:58.797Z,6.97
2019-04-18T13:11:28.599Z,6.22
2019-04-18T13:13:52.813Z,6.25
2019-04-18T13:16:04.258Z,6.28
2019-04-18T13:18:08.473Z,7.60
2019-04-18T13:20:10.824Z,6.83
2019-04-18T13:22:12.060Z,6.00
2019-04-18T13:24:16.951Z,6.17
2019-04-18T13:26:16.536Z,7.57
2019-04-18T13:28:37.632Z,7.03
2019-04-18T13:30:39.280Z,6.40
2019-04-18T13:32:40.493Z,6.15
2019-04-18T13:34:42.165Z,5.90
2019-04-18T13:36:43.823Z,6.00
2019-04-18T13:38:45.297Z,6.47
2019-04-18T13:40:46.909Z,6.30
2019-04-18T13:42:48.164Z,6.15
2019-04-18T13:44:49.388Z,6.20
2019-04-18T13:46:53.123Z,6.30
2019-04-18T13:48:53.736Z,5.70
2019-04-18T13:50:54.974Z,5.90
2019-04-18T13:52:56.837Z,5.95
2019-04-18T13:54:59.091Z,5.80
2019-04-18T13:57:00.884Z,6.08
2019-04-18T13:59:02.390Z,5.55
2019-04-18T14:01:03.825Z,5.72
2019-04-18T14:03:05.512Z,5.20
2019-04-18T14:05:06.949Z,5.15
2019-04-18T14:07:08.460Z,5.60
2019-04-18T14:09:09.679Z,5.33
2019-04-18T14:11:14.548Z,5.40
2019-04-18T14:13:14.389Z,5.67
2019-04-18T14:15:15.604Z,5.58
2019-04-18T14:17:16.888Z,5.47
2019-04-18T14:19:18.352Z,5.20
2019-04-18T14:21:19.960Z,5.12
2019-04-18T14:23:21.189Z,5.58
2019-04-18T14:25:22.417Z,5.70
2019-04-18T14:27:23.661Z,5.70
2019-04-18T14:29:24.888Z,5.50
2019-04-18T14:31:26.101Z,5.87
2019-04-18T14:33:27.440Z,5.90
2019-04-18T14:35:28.648Z,5.60
2019-04-18T14:37:29.875Z,6.05
2019-04-18T14:39:31.089Z,5.45
2019-04-18T14:41:35.282Z,5.60
2019-04-18T14:43:35.544Z,5.58
2019-04-18T14:45:36.780Z,5.22
2019-04-18T14:47:38.347Z,5.05
2019-04-18T14:49:39.913Z,5.28
2019-04-18T14:51:41.431Z,5.15
2019-04-18T14:53:43.283Z,5.05
2019-04-18T14:55:45.257Z,5.85
2019-04-18T14:57:46.465Z,5.20
2019-04-18T14:59:48.167Z,5.28
2019-04-18T15:01:51.284Z,4.85
2019-04-18T15:03:52.617Z,4.83
2019-04-18T15:05:53.856Z,4.90
2019-04-18T15:07:55.077Z,4.87
2019-04-18T15:09:56.621Z,4.60
2019-04-18T15:11:57.847Z,5.08
2019-04-18T15:13:59.389Z,4.53
2019-04-18T15:16:01.300Z,4.55
2019-04-18T15:18:02.538Z,4.47
2019-04-18T15:20:05.719Z,4.40
2019-04-18T15:22:09.017Z,4.22
2019-04-18T15:24:10.521Z,4.80
2019-04-18T15:26:12.065Z,4.58
2019-04-18T15:28:13.284Z,4.78
2019-04-18T15:30:14.560Z,4.78
2019-04-18T15:32:15.917Z,4.70
2019-04-18T15:34:17.132Z,4.33
2019-04-18T15:36:21.957Z,7.30
2019-04-18T15:38:21.692Z,4.50
2019-04-18T15:40:25.259Z,4.70
2019-04-18T15:42:27.168Z,4.12
2019-04-18T15:44:28.497Z,4.33
2019-04-18T15:46:38.709Z,4.03
2019-04-18T15:48:39.948Z,4.13
2019-04-18T15:50:41.161Z,3.92
2019-04-18T15:52:42.684Z,4.05
2019-04-18T15:54:43.905Z,4.42
2019-04-18T15:56:45.153Z,4.00
2019-04-18T15:58:46.630Z,3.92
2019-04-18T16:00:48.278Z,3.95
2019-04-18T16:02:49.512Z,4.15
2019-04-18T16:04:50.771Z,4.22
2019-04-18T16:06:51.985Z,4.20
2019-04-18T16:08:53.225Z,3.87
2019-04-18T16:10:54.797Z,3.75
2019-04-18T16:12:56.024Z,3.97
2019-04-18T16:15:00.876Z,4.20
2019-04-18T16:17:02.108Z,4.45
2019-04-18T16:19:03.336Z,4.17
2019-04-18T16:21:04.871Z,3.90
2019-04-18T16:23:06.349Z,4.30
2019-04-18T16:25:08.621Z,4.10
2019-04-18T16:27:09.884Z,4.10
2019-04-18T16:29:11.133Z,4.17
2019-04-18T16:31:12.952Z,4.60
2019-04-18T16:33:14.233Z,3.90
2019-04-18T16:35:16.412Z,6.20
2019-04-18T16:37:18.301Z,3.90
2019-04-18T16:39:20.032Z,4.70
2019-04-18T16:41:21.574Z,3.72
2019-04-18T16:43:22.788Z,3.80
2019-04-18T16:45:24.029Z,3.80
2019-04-18T16:47:25.973Z,3.65
2019-04-18T16:49:27.551Z,4.10
2019-04-18T16:51:28.860Z,4.20
2019-04-18T16:53:32.523Z,3.58
2019-04-18T16:55:33.755Z,3.52
2019-04-18T16:57:35.684Z,3.30
2019-04-18T16:59:36.908Z,3.80
2019-04-18T17:01:38.128Z,3.40
2019-04-18T17:03:51.069Z,5.67
2019-04-18T17:05:42.836Z,3.60
2019-04-18T17:07:44.174Z,4.37
2019-04-18T17:09:45.405Z,3.77
2019-04-18T17:11:46.664Z,3.62
2019-04-18T17:13:48.136Z,3.83
2019-04-18T17:15:49.356Z,4.00
2019-04-18T17:17:50.597Z,3.67
2019-04-18T17:19:51.816Z,3.52
2019-04-18T17:21:53.293Z,3.67
2019-04-18T17:23:54.772Z,3.80
2019-04-18T17:25:56.333Z,4.00
2019-04-18T17:27:57.884Z,4.53
2019-04-18T17:29:59.160Z,4.03
2019-04-18T17:32:00.485Z,3.60
2019-04-18T17:34:07.825Z,4.08
2019-04-18T17:36:19.677Z,3.77
2019-04-18T17:38:32.516Z,4.13
2019-04-18T17:40:24.558Z,4.05
2019-04-18T17:42:14.876Z,3.43
2019-04-18T17:44:16.113Z,3.30
2019-04-18T17:46:20.642Z,3.40
2019-04-18T17:48:20.481Z,4.10
2019-04-18T17:50:22.110Z,3.83
2019-04-18T17:52:36.213Z,3.60
2019-04-18T17:54:42.179Z,3.70
2019-04-18T17:56:36.938Z,3.60
2019-04-18T17:58:33.356Z,3.97
2019-04-18T18:00:35.137Z,4.83
2019-04-18T18:02:37.728Z,3.90
2019-04-18T18:04:45.150Z,3.90
2019-04-18T18:06:51.231Z,3.63
2019-04-18T18:08:52.384Z,3.97
2019-04-18T18:10:48.863Z,3.20
2019-04-18T18:12:50.236Z,3.50
2019-04-18T18:14:56.300Z,4.30
2019-04-18T18:17:02.092Z,3.47
2019-04-18T18:18:59.178Z,4.63
2019-04-18T18:21:05.256Z,4.10
2019-04-18T18:23:05.856Z,4.00
2019-04-18T18:25:07.023Z,3.97
2019-04-18T18:27:09.098Z,3.80
2019-04-18T18:29:12.273Z,3.97
2019-04-18T18:31:39.046Z,4.20
2019-04-18T18:33:41.244Z,4.10
2019-04-18T18:35:57.864Z,4.77
2019-04-18T18:37:55.813Z,4.87
2019-04-18T18:39:52.282Z,5.57
2019-04-18T18:41:55.562Z,6.20
2019-04-18T18:44:01.401Z,6.10
2019-04-18T18:45:59.504Z,6.17
2019-04-18T18:48:03.323Z,6.00
2019-04-18T18:50:04.371Z,7.17
2019-04-18T18:52:07.605Z,7.33
2019-04-18T18:54:09.395Z,8.08
2019-04-18T18:56:16.356Z,7.83
2019-04-18T18:58:21.905Z,8.43
2019-04-18T19:00:18.599Z,8.27
2019-04-18T19:02:23.129Z,7.77
2019-04-18T19:04:23.876Z,8.00
2019-04-18T19:06:35.955Z,7.87
2019-04-18T19:09:04.320Z,7.50
2019-04-18T19:11:03.796Z,8.60
2019-04-18T19:13:05.822Z,8.43
2019-04-18T19:14:43.475Z,7.87
2019-04-18T19:16:48.169Z,8.47
2019-04-18T19:18:45.279Z,7.73
2019-04-18T19:20:47.481Z,7.60
2019-04-18T19:22:49.916Z,7.90
2019-04-18T19:24:56.412Z,7.83
2019-04-18T19:27:05.102Z,8.73
2019-04-18T19:29:10.018Z,8.38
2019-04-18T19:31:01.248Z,7.50
2019-04-18T19:33:06.944Z,8.15
2019-04-18T19:35:25.844Z,8.07
2019-04-18T19:37:24.426Z,8.20
2019-04-18T19:39:34.113Z,7.60
2019-04-18T19:41:30.802Z,8.67
2019-04-18T19:43:19.886Z,8.90
2019-04-18T19:45:21.851Z,8.73
2019-04-18T19:47:24.920Z,8.20
2019-04-18T19:49:26.284Z,7.67
2019-04-18T19:51:30.762Z,7.37
2019-04-18T19:53:34.432Z,7.73
2019-04-18T19:55:34.904Z,6.93
2019-04-18T19:57:37.280Z,6.80
2019-04-18T19:59:40.426Z,7.00
2019-04-18T20:01:42.318Z,7.20
2019-04-18T20:03:44.549Z,7.83
2019-04-18T20:08:02.901Z,6.90
2019-04-18T20:10:05.201Z,7.00
2019-04-18T20:12:04.106Z,6.83
2019-04-18T20:14:09.080Z,7.20
2019-04-18T20:16:03.247Z,6.87
2019-04-18T20:18:05.030Z,7.10
2019-04-18T20:20:07.291Z,7.17
2019-04-18T20:22:11.140Z,7.40
2019-04-18T20:24:11.752Z,6.67
2019-04-18T20:26:13.833Z,7.00
2019-04-18T20:28:16.298Z,6.87
2019-04-18T20:30:22.546Z,6.87
2019-04-18T20:32:25.573Z,7.30
2019-04-18T20:34:24.655Z,7.70
2019-04-18T20:36:40.299Z,7.63
2019-04-18T20:38:34.156Z,7.43
2019-04-18T20:40:56.173Z,7.73
2019-04-18T20:42:50.756Z,8.07
2019-04-18T20:44:47.645Z,7.87
2019-04-18T20:46:57.388Z,7.83
2019-04-18T20:49:04.604Z,7.70
2019-04-18T20:50:56.617Z,7.40
2019-04-18T20:53:12.231Z,7.70
2019-04-18T20:55:17.548Z,7.27
2019-04-18T20:56:58.259Z,8.03
2019-04-18T20:59:07.062Z,7.57
2019-04-18T21:01:03.345Z,7.97
2019-04-18T21:03:06.533Z,8.40
2019-04-18T21:05:07.707Z,8.67
2019-04-18T21:07:23.542Z,7.80
2019-04-18T21:09:21.949Z,7.70
2019-04-18T21:11:15.849Z,7.97
2019-04-18T21:13:17.113Z,7.57
2019-04-18T21:15:18.627Z,7.90
2019-04-18T21:17:22.294Z,7.30
2019-04-18T21:19:22.981Z,7.10
2019-04-18T21:21:24.208Z,7.60
2019-04-18T21:23:26.691Z,7.57
2019-04-18T21:25:28.419Z,7.07
2019-04-18T21:27:37.071Z,7.00
2019-04-18T21:29:33.809Z,7.00
2019-04-18T21:31:36.616Z,7.10
2019-04-18T21:33:39.881Z,6.97
2019-04-18T21:35:42.534Z,6.77
2019-04-18T21:37:57.196Z,6.87
2019-04-18T21:39:48.467Z,6.83
2019-04-18T21:41:50.085Z,6.80
2019-04-18T21:43:57.757Z,6.47
2019-04-18T21:45:55.465Z,6.93
2019-04-18T21:47:57.183Z,6.60
2019-04-18T21:49:59.366Z,6.80
2019-04-18T21:52:02.345Z,6.10
2019-04-18T21:54:06.186Z,6.40
2019-04-18T21:56:10.095Z,6.40
2019-04-18T21:58:25.673Z,6.13
2019-04-18T22:00:23.560Z,5.90
2019-04-18T22:02:27.923Z,5.73
2019-04-18T22:04:29.834Z,6.03
2019-04-18T22:06:34.492Z,5.77
2019-04-18T22:08:30.940Z,5.73
2019-04-18T22:10:34.992Z,5.73
2019-04-18T22:12:42.064Z,5.90
2019-04-18T22:14:39.393Z,6.10
2019-04-18T22:16:41.797Z,5.80
2019-04-18T22:18:43.774Z,6.33
2019-04-18T22:20:46.187Z,5.97
2019-04-18T22:22:48.712Z,5.60
2019-04-18T22:24:55.878Z,5.90
2019-04-18T22:26:53.633Z,5.70
2019-04-18T22:28:54.891Z,5.30
2019-04-18T22:30:56.490Z,5.80
2019-04-18T22:33:16.646Z,5.87
2019-04-18T22:35:18.250Z,5.90
2019-04-18T22:37:27.753Z,5.73
2019-04-18T22:39:26.082Z,6.13
2019-04-18T22:41:34.488Z,6.67
2019-04-18T22:43:35.392Z,6.23
2019-04-18T22:45:41.230Z,6.77
2019-04-18T22:47:39.299Z,6.83
2019-04-18T22:49:39.669Z,7.30
2019-04-18T22:51:47.914Z,7.20
2019-04-18T22:53:49.062Z,6.60
2019-04-18T22:55:48.660Z,6.63
2019-04-18T22:57:51.865Z,6.07
2019-04-18T22:59:55.603Z,6.23
2019-04-18T23:02:00.875Z,6.17
2019-04-18T23:04:01.420Z,5.90
2019-04-18T23:06:03.185Z,6.10
2019-04-18T23:08:12.654Z,5.97
2019-04-18T23:10:08.133Z,6.20
2019-04-18T23:12:10.607Z,5.73
2019-04-18T23:14:15.340Z,5.03
2019-04-18T23:16:19.116Z,5.30
2019-04-18T23:18:23.403Z,4.87
2019-04-18T23:20:24.167Z,5.17
2019-04-18T23:22:28.919Z,4.40
2019-04-18T23:24:31.832Z,4.60
2019-04-18T23:26:32.507Z,4.60
2019-04-18T23:28:33.947Z,4.70
2019-04-18T23:30:36.015Z,4.73
2019-04-18T23:32:39.497Z,4.77
2019-04-18T23:34:44.747Z,4.40
2019-04-18T23:36:49.041Z,4.73
2019-04-18T23:38:48.882Z,4.80
2019-04-18T23:40:50.249Z,5.10
2019-04-18T23:42:54.316Z,5.00
2019-04-18T23:44:58.580Z,5.20
2019-04-18T23:47:04.385Z,5.37
2019-04-18T23:49:02.826Z,5.37
2019-04-18T23:51:04.568Z,5.37
2019-04-18T23:53:07.906Z,5.40
2019-04-18T23:55:13.678Z,5.30
2019-04-18T23:57:17.309Z,5.00
2019-04-18T23:59:16.804Z,5.30
